sensor_id;sensor_type;location;lat;lon;timestamp;pressure;altitude;pressure_sealevel;temperature
15170;BMP280;7685;47.406;8.540;2024-03-06T00:02:20;96323.78;;;8.09
15170;BMP280;7685;47.406;8.540;2024-03-06T00:04:48;96323.44;;;8.05
15170;BMP280;7685;47.406;8.540;2024-03-06T00:07:14;96329.44;;;8.05
15170;BMP280;7685;47.406;8.540;2024-03-06T00:09:41;96327.38;;;8.04
15170;BMP280;7685;47.406;8.540;2024-03-06T00:12:08;96320.88;;;7.97
15170;BMP280;7685;47.406;8.540;2024-03-06T00:14:35;96334.59;;;7.96
15170;BMP280;7685;47.406;8.540;2024-03-06T00:17:03;96345.19;;;7.96
15170;BMP280;7685;47.406;8.540;2024-03-06T00:19:34;96337.09;;;7.94
15170;BMP280;7685;47.406;8.540;2024-03-06T00:22:01;96335.69;;;7.93
15170;BMP280;7685;47.406;8.540;2024-03-06T00:24:28;96346.44;;;7.95
15170;BMP280;7685;47.406;8.540;2024-03-06T00:26:56;96344.47;;;7.95
15170;BMP280;7685;47.406;8.540;2024-03-06T00:29:22;96346.97;;;7.93
15170;BMP280;7685;47.406;8.540;2024-03-06T00:31:49;96345.72;;;7.94
15170;BMP280;7685;47.406;8.540;2024-03-06T00:34:15;96347.81;;;7.96
15170;BMP280;7685;47.406;8.540;2024-03-06T00:36:45;96343.09;;;7.94
15170;BMP280;7685;47.406;8.540;2024-03-06T00:39:11;96349.63;;;7.93
15170;BMP280;7685;47.406;8.540;2024-03-06T00:41:40;96348.22;;;7.92
15170;BMP280;7685;47.406;8.540;2024-03-06T00:44:08;96340.63;;;7.89
15170;BMP280;7685;47.406;8.540;2024-03-06T00:46:35;96339.41;;;7.90
15170;BMP280;7685;47.406;8.540;2024-03-06T00:49:01;96344.53;;;7.88
15170;BMP280;7685;47.406;8.540;2024-03-06T00:51:28;96339.63;;;7.76
15170;BMP280;7685;47.406;8.540;2024-03-06T00:54:09;96350.00;;;7.74
15170;BMP280;7685;47.406;8.540;2024-03-06T00:56:39;96357.47;;;7.68
15170;BMP280;7685;47.406;8.540;2024-03-06T00:59:05;96349.00;;;7.62
15170;BMP280;7685;47.406;8.540;2024-03-06T01:01:32;96360.47;;;7.57
15170;BMP280;7685;47.406;8.540;2024-03-06T01:03:58;96352.56;;;7.49
15170;BMP280;7685;47.406;8.540;2024-03-06T01:06:25;96357.69;;;7.47
15170;BMP280;7685;47.406;8.540;2024-03-06T01:08:52;96356.44;;;7.41
15170;BMP280;7685;47.406;8.540;2024-03-06T01:11:18;96356.25;;;7.39
15170;BMP280;7685;47.406;8.540;2024-03-06T01:13:44;96371.41;;;7.38
15170;BMP280;7685;47.406;8.540;2024-03-06T01:16:11;96362.97;;;7.32
15170;BMP280;7685;47.406;8.540;2024-03-06T01:18:37;96363.31;;;7.28
15170;BMP280;7685;47.406;8.540;2024-03-06T01:21:04;96363.84;;;7.27
15170;BMP280;7685;47.406;8.540;2024-03-06T01:23:30;96364.38;;;7.25
15170;BMP280;7685;47.406;8.540;2024-03-06T01:25:57;96368.28;;;7.24
15170;BMP280;7685;47.406;8.540;2024-03-06T01:28:23;96370.72;;;7.22
15170;BMP280;7685;47.406;8.540;2024-03-06T01:30:50;96356.47;;;7.18
15170;BMP280;7685;47.406;8.540;2024-03-06T01:33:16;96359.09;;;7.18
15170;BMP280;7685;47.406;8.540;2024-03-06T01:35:43;96352.22;;;7.15
15170;BMP280;7685;47.406;8.540;2024-03-06T01:38:09;96356.13;;;7.14
15170;BMP280;7685;47.406;8.540;2024-03-06T01:40:37;96355.94;;;7.12
15170;BMP280;7685;47.406;8.540;2024-03-06T01:43:03;96356.28;;;7.08
15170;BMP280;7685;47.406;8.540;2024-03-06T01:45:31;96361.56;;;7.08
15170;BMP280;7685;47.406;8.540;2024-03-06T01:47:58;96352.75;;;7.05
15170;BMP280;7685;47.406;8.540;2024-03-06T01:50:26;96361.94;;;7.04
15170;BMP280;7685;47.406;8.540;2024-03-06T01:52:53;96361.22;;;7.04
15170;BMP280;7685;47.406;8.540;2024-03-06T01:55:19;96358.94;;;7.00
15170;BMP280;7685;47.406;8.540;2024-03-06T01:57:46;96357.53;;;6.99
15170;BMP280;7685;47.406;8.540;2024-03-06T02:00:13;96342.72;;;6.96
15170;BMP280;7685;47.406;8.540;2024-03-06T02:02:42;96345.72;;;6.93
15170;BMP280;7685;47.406;8.540;2024-03-06T02:05:09;96340.97;;;6.91
15170;BMP280;7685;47.406;8.540;2024-03-06T02:07:38;96336.41;;;6.92
15170;BMP280;7685;47.406;8.540;2024-03-06T02:10:07;96342.19;;;6.90
15170;BMP280;7685;47.406;8.540;2024-03-06T02:12:34;96334.81;;;6.89
15170;BMP280;7685;47.406;8.540;2024-03-06T02:15:01;96345.38;;;6.89
15170;BMP280;7685;47.406;8.540;2024-03-06T02:17:29;96342.56;;;6.87
15170;BMP280;7685;47.406;8.540;2024-03-06T02:19:56;96350.84;;;6.91
15170;BMP280;7685;47.406;8.540;2024-03-06T02:22:25;96350.09;;;6.90
15170;BMP280;7685;47.406;8.540;2024-03-06T02:24:51;96350.66;;;6.89
15170;BMP280;7685;47.406;8.540;2024-03-06T02:27:17;96347.13;;;6.86
15170;BMP280;7685;47.406;8.540;2024-03-06T02:29:44;96354.34;;;6.86
15170;BMP280;7685;47.406;8.540;2024-03-06T02:32:12;96359.25;;;6.89
15170;BMP280;7685;47.406;8.540;2024-03-06T02:34:40;96358.75;;;6.91
15170;BMP280;7685;47.406;8.540;2024-03-06T02:37:07;96354.69;;;6.90
15170;BMP280;7685;47.406;8.540;2024-03-06T02:39:34;96357.53;;;6.92
15170;BMP280;7685;47.406;8.540;2024-03-06T02:42:01;96350.09;;;6.90
15170;BMP280;7685;47.406;8.540;2024-03-06T02:44:27;96350.66;;;6.89
15170;BMP280;7685;47.406;8.540;2024-03-06T02:46:54;96362.09;;;6.91
15170;BMP280;7685;47.406;8.540;2024-03-06T02:49:20;96359.47;;;6.91
15170;BMP280;7685;47.406;8.540;2024-03-06T02:51:47;96360.31;;;6.94
15170;BMP280;7685;47.406;8.540;2024-03-06T02:54:14;96370.03;;;6.91
15170;BMP280;7685;47.406;8.540;2024-03-06T02:56:41;96370.72;;;6.92
15170;BMP280;7685;47.406;8.540;2024-03-06T02:59:07;96364.91;;;6.93
15170;BMP280;7685;47.406;8.540;2024-03-06T03:01:34;96369.69;;;6.95
15170;BMP280;7685;47.406;8.540;2024-03-06T03:04:01;96364.19;;;6.93
15170;BMP280;7685;47.406;8.540;2024-03-06T03:06:27;96374.59;;;6.91
15170;BMP280;7685;47.406;8.540;2024-03-06T03:08:55;96374.06;;;6.92
15170;BMP280;7685;47.406;8.540;2024-03-06T03:11:22;96376.72;;;6.92
15170;BMP280;7685;47.406;8.540;2024-03-06T03:13:49;96378.44;;;6.90
15170;BMP280;7685;47.406;8.540;2024-03-06T03:16:19;96376.50;;;6.90
15170;BMP280;7685;47.406;8.540;2024-03-06T03:18:47;96366.47;;;6.89
15170;BMP280;7685;47.406;8.540;2024-03-06T03:21:17;96375.09;;;6.89
15170;BMP280;7685;47.406;8.540;2024-03-06T03:23:44;96362.97;;;6.86
15170;BMP280;7685;47.406;8.540;2024-03-06T03:26:10;96372.47;;;6.89
15170;BMP280;7685;47.406;8.540;2024-03-06T03:28:38;96369.31;;;6.91
15170;BMP280;7685;47.406;8.540;2024-03-06T03:31:09;96367.88;;;6.90
15170;BMP280;7685;47.406;8.540;2024-03-06T03:33:39;96377.75;;;6.89
15170;BMP280;7685;47.406;8.540;2024-03-06T03:36:06;96374.25;;;6.87
15170;BMP280;7685;47.406;8.540;2024-03-06T03:38:36;96380.75;;;6.86
15170;BMP280;7685;47.406;8.540;2024-03-06T03:41:11;96377.22;;;6.83
15170;BMP280;7685;47.406;8.540;2024-03-06T03:43:43;96381.81;;;6.83
15170;BMP280;7685;47.406;8.540;2024-03-06T03:46:09;96386.03;;;6.86
15170;BMP280;7685;47.406;8.540;2024-03-06T03:48:36;96388.69;;;6.86
15170;BMP280;7685;47.406;8.540;2024-03-06T03:51:04;96388.88;;;6.88
15170;BMP280;7685;47.406;8.540;2024-03-06T03:53:34;96392.72;;;6.87
15170;BMP280;7685;47.406;8.540;2024-03-06T03:56:01;96388.50;;;6.84
15170;BMP280;7685;47.406;8.540;2024-03-06T03:58:28;96389.03;;;6.82
15170;BMP280;7685;47.406;8.540;2024-03-06T04:00:54;96388.50;;;6.84
15170;BMP280;7685;47.406;8.540;2024-03-06T04:03:22;96384.63;;;6.85
15170;BMP280;7685;47.406;8.540;2024-03-06T04:05:50;96389.38;;;6.86
15170;BMP280;7685;47.406;8.540;2024-03-06T04:08:17;96387.44;;;6.87
15170;BMP280;7685;47.406;8.540;2024-03-06T04:10:44;96384.81;;;6.87
15170;BMP280;7685;47.406;8.540;2024-03-06T04:13:11;96386.03;;;6.86
15170;BMP280;7685;47.406;8.540;2024-03-06T04:15:38;96387.44;;;6.87
15170;BMP280;7685;47.406;8.540;2024-03-06T04:18:05;96390.63;;;6.85
15170;BMP280;7685;47.406;8.540;2024-03-06T04:20:32;96399.44;;;6.88
15170;BMP280;7685;47.406;8.540;2024-03-06T04:22:58;96398.53;;;6.85
15170;BMP280;7685;47.406;8.540;2024-03-06T04:25:25;96398.53;;;6.85
15170;BMP280;7685;47.406;8.540;2024-03-06T04:27:51;96408.22;;;6.83
15170;BMP280;7685;47.406;8.540;2024-03-06T04:30:17;96407.31;;;6.80
15170;BMP280;7685;47.406;8.540;2024-03-06T04:32:44;96407.31;;;6.80
15170;BMP280;7685;47.406;8.540;2024-03-06T04:35:10;96405.22;;;6.78
15170;BMP280;7685;47.406;8.540;2024-03-06T04:37:37;96399.22;;;6.78
15170;BMP280;7685;47.406;8.540;2024-03-06T04:40:04;96403.06;;;6.77
15170;BMP280;7685;47.406;8.540;2024-03-06T04:42:34;96409.06;;;6.77
15170;BMP280;7685;47.406;8.540;2024-03-06T04:45:03;96406.41;;;6.77
15170;BMP280;7685;47.406;8.540;2024-03-06T04:47:29;96407.47;;;6.74
15170;BMP280;7685;47.406;8.540;2024-03-06T04:49:56;96411.91;;;6.72
15170;BMP280;7685;47.406;8.540;2024-03-06T04:52:24;96420.31;;;6.70
15170;BMP280;7685;47.406;8.540;2024-03-06T04:54:50;96419.44;;;6.68
15170;BMP280;7685;47.406;8.540;2024-03-06T04:57:17;96420.16;;;6.68
15170;BMP280;7685;47.406;8.540;2024-03-06T04:59:43;96422.78;;;6.68
15170;BMP280;7685;47.406;8.540;2024-03-06T05:02:10;96423.63;;;6.63
15170;BMP280;7685;47.406;8.540;2024-03-06T05:04:36;96432.78;;;6.62
15170;BMP280;7685;47.406;8.540;2024-03-06T05:07:20;96443.50;;;6.64
15170;BMP280;7685;47.406;8.540;2024-03-06T05:10:06;96441.78;;;6.59
15170;BMP280;7685;47.406;8.540;2024-03-06T05:12:51;96441.56;;;6.57
15170;BMP280;7685;47.406;8.540;2024-03-06T05:15:36;96439.47;;;6.56
15170;BMP280;7685;47.406;8.540;2024-03-06T05:18:20;96444.22;;;6.57
15170;BMP280;7685;47.406;8.540;2024-03-06T05:21:04;96442.44;;;6.52
15170;BMP280;7685;47.406;8.540;2024-03-06T05:23:48;96453.69;;;6.52
15170;BMP280;7685;47.406;8.540;2024-03-06T05:26:32;96456.84;;;6.51
15170;BMP280;7685;47.406;8.540;2024-03-06T05:29:16;96463.56;;;6.52
15170;BMP280;7685;47.406;8.540;2024-03-06T05:32:00;96464.06;;;6.50
15170;BMP280;7685;47.406;8.540;2024-03-06T05:34:45;96461.94;;;6.49
15170;BMP280;7685;47.406;8.540;2024-03-06T05:37:29;96463.72;;;6.46
15170;BMP280;7685;47.406;8.540;2024-03-06T05:40:14;96451.41;;;6.49
15170;BMP280;7685;47.406;8.540;2024-03-06T05:42:58;96458.59;;;6.48
15170;BMP280;7685;47.406;8.540;2024-03-06T05:45:42;96459.31;;;6.49
15170;BMP280;7685;47.406;8.540;2024-03-06T05:48:26;96459.13;;;6.47
15170;BMP280;7685;47.406;8.540;2024-03-06T05:51:10;96463.50;;;6.44
15170;BMP280;7685;47.406;8.540;2024-03-06T05:53:54;96473.91;;;6.42
15170;BMP280;7685;47.406;8.540;2024-03-06T05:56:38;96473.38;;;6.44
15170;BMP280;7685;47.406;8.540;2024-03-06T05:59:23;96481.28;;;6.44
15170;BMP280;7685;47.406;8.540;2024-03-06T06:01:50;96482.69;;;6.45
15170;BMP280;7685;47.406;8.540;2024-03-06T06:04:16;96482.88;;;6.47
15170;BMP280;7685;47.406;8.540;2024-03-06T06:06:43;96485.00;;;6.48
15170;BMP280;7685;47.406;8.540;2024-03-06T06:09:09;96491.16;;;6.51
15170;BMP280;7685;47.406;8.540;2024-03-06T06:11:43;96492.06;;;6.53
15170;BMP280;7685;47.406;8.540;2024-03-06T06:14:10;96490.31;;;6.56
15170;BMP280;7685;47.406;8.540;2024-03-06T06:16:38;96491.16;;;6.51
15170;BMP280;7685;47.406;8.540;2024-03-06T06:19:05;96503.31;;;6.54
15170;BMP280;7685;47.406;8.540;2024-03-06T06:21:32;96500.31;;;6.50
15170;BMP280;7685;47.406;8.540;2024-03-06T06:23:59;96507.19;;;6.53
15170;BMP280;7685;47.406;8.540;2024-03-06T06:26:25;96512.97;;;6.51
15170;BMP280;7685;47.406;8.540;2024-03-06T06:28:52;96508.75;;;6.48
15170;BMP280;7685;47.406;8.540;2024-03-06T06:31:18;96506.81;;;6.49
15170;BMP280;7685;47.406;8.540;2024-03-06T06:33:45;96519.47;;;6.50
15170;BMP280;7685;47.406;8.540;2024-03-06T06:36:12;96519.47;;;6.50
15170;BMP280;7685;47.406;8.540;2024-03-06T06:38:38;96528.28;;;6.53
15170;BMP280;7685;47.406;8.540;2024-03-06T06:41:05;96523.03;;;6.53
15170;BMP280;7685;47.406;8.540;2024-03-06T06:43:31;96526.88;;;6.52
15170;BMP280;7685;47.406;8.540;2024-03-06T06:45:58;96518.97;;;6.52
15170;BMP280;7685;47.406;8.540;2024-03-06T06:48:27;96517.53;;;6.51
15170;BMP280;7685;47.406;8.540;2024-03-06T06:50:53;96522.81;;;6.51
15170;BMP280;7685;47.406;8.540;2024-03-06T06:53:20;96520.72;;;6.49
15170;BMP280;7685;47.406;8.540;2024-03-06T06:55:46;96521.06;;;6.46
15170;BMP280;7685;47.406;8.540;2024-03-06T06:58:12;96521.56;;;6.44
15170;BMP280;7685;47.406;8.540;2024-03-06T07:00:40;96521.56;;;6.44
15170;BMP280;7685;47.406;8.540;2024-03-06T07:03:08;96523.50;;;6.44
15170;BMP280;7685;47.406;8.540;2024-03-06T07:05:34;96530.00;;;6.43
15170;BMP280;7685;47.406;8.540;2024-03-06T07:08:01;96517.16;;;6.39
15170;BMP280;7685;47.406;8.540;2024-03-06T07:10:27;96522.59;;;6.41
15170;BMP280;7685;47.406;8.540;2024-03-06T07:12:55;96528.59;;;6.42
15170;BMP280;7685;47.406;8.540;2024-03-06T07:15:21;96535.28;;;6.43
15170;BMP280;7685;47.406;8.540;2024-03-06T07:17:48;96533.34;;;6.43
15170;BMP280;7685;47.406;8.540;2024-03-06T07:20:18;96537.94;;;6.43
15170;BMP280;7685;47.406;8.540;2024-03-06T07:22:44;96538.44;;;6.41
15170;BMP280;7685;47.406;8.540;2024-03-06T07:25:12;96539.66;;;6.40
15170;BMP280;7685;47.406;8.540;2024-03-06T07:27:38;96536.13;;;6.38
15170;BMP280;7685;47.406;8.540;2024-03-06T07:30:05;96544.94;;;6.40
15170;BMP280;7685;47.406;8.540;2024-03-06T07:32:33;96545.44;;;6.39
15170;BMP280;7685;47.406;8.540;2024-03-06T07:34:59;96540.16;;;6.39
15170;BMP280;7685;47.406;8.540;2024-03-06T07:37:27;96551.44;;;6.39
15170;BMP280;7685;47.406;8.540;2024-03-06T07:39:54;96551.63;;;6.41
15170;BMP280;7685;47.406;8.540;2024-03-06T07:42:20;96547.59;;;6.40
15170;BMP280;7685;47.406;8.540;2024-03-06T07:44:47;96548.63;;;6.37
15170;BMP280;7685;47.406;8.540;2024-03-06T07:47:14;96550.41;;;6.42
15170;BMP280;7685;47.406;8.540;2024-03-06T07:49:41;96552.53;;;6.44
15170;BMP280;7685;47.406;8.540;2024-03-06T07:52:08;96551.13;;;6.43
15170;BMP280;7685;47.406;8.540;2024-03-06T07:54:35;96546.72;;;6.45
15170;BMP280;7685;47.406;8.540;2024-03-06T07:57:02;96551.84;;;6.51
15170;BMP280;7685;47.406;8.540;2024-03-06T07:59:28;96554.00;;;6.52
15170;BMP280;7685;47.406;8.540;2024-03-06T08:01:57;96562.78;;;6.55
15170;BMP280;7685;47.406;8.540;2024-03-06T08:04:24;96564.53;;;6.52
15170;BMP280;7685;47.406;8.540;2024-03-06T08:06:50;96572.63;;;6.54
15170;BMP280;7685;47.406;8.540;2024-03-06T08:09:17;96574.94;;;6.58
15170;BMP280;7685;47.406;8.540;2024-03-06T08:11:44;96578.81;;;6.57
15170;BMP280;7685;47.406;8.540;2024-03-06T08:14:10;96580.97;;;6.59
15170;BMP280;7685;47.406;8.540;2024-03-06T08:16:37;96583.94;;;6.63
15170;BMP280;7685;47.406;8.540;2024-03-06T08:19:04;96585.34;;;6.64
15170;BMP280;7685;47.406;8.540;2024-03-06T08:21:30;96580.78;;;6.64
15170;BMP280;7685;47.406;8.540;2024-03-06T08:23:56;96579.75;;;6.67
15170;BMP280;7685;47.406;8.540;2024-03-06T08:26:23;96587.50;;;6.65
15170;BMP280;7685;47.406;8.540;2024-03-06T08:28:49;96584.53;;;6.69
15170;BMP280;7685;47.406;8.540;2024-03-06T08:31:17;96579.25;;;6.69
15170;BMP280;7685;47.406;8.540;2024-03-06T08:33:44;96585.44;;;6.71
15170;BMP280;7685;47.406;8.540;2024-03-06T08:36:11;96584.53;;;6.76
15170;BMP280;7685;47.406;8.540;2024-03-06T08:38:40;96597.25;;;6.78
15170;BMP280;7685;47.406;8.540;2024-03-06T08:41:09;96594.28;;;6.82
15170;BMP280;7685;47.406;8.540;2024-03-06T08:43:35;96599.22;;;6.85
15170;BMP280;7685;47.406;8.540;2024-03-06T08:46:02;96598.69;;;6.87
15170;BMP280;7685;47.406;8.540;2024-03-06T08:48:30;96599.41;;;6.87
15170;BMP280;7685;47.406;8.540;2024-03-06T08:50:57;96602.75;;;6.88
15170;BMP280;7685;47.406;8.540;2024-03-06T08:53:23;96608.88;;;6.90
15170;BMP280;7685;47.406;8.540;2024-03-06T08:55:50;96612.25;;;6.91
15170;BMP280;7685;47.406;8.540;2024-03-06T08:58:17;96611.53;;;6.90
15170;BMP280;7685;47.406;8.540;2024-03-06T09:00:44;96615.09;;;6.93
15170;BMP280;7685;47.406;8.540;2024-03-06T09:03:10;96615.09;;;6.93
15170;BMP280;7685;47.406;8.540;2024-03-06T09:05:37;96629.19;;;6.95
15170;BMP280;7685;47.406;8.540;2024-03-06T09:08:04;96624.59;;;6.96
15170;BMP280;7685;47.406;8.540;2024-03-06T09:10:35;96624.94;;;6.92
15170;BMP280;7685;47.406;8.540;2024-03-06T09:13:02;96632.66;;;6.90
15170;BMP280;7685;47.406;8.540;2024-03-06T09:15:29;96639.88;;;6.90
15170;BMP280;7685;47.406;8.540;2024-03-06T09:17:55;96640.06;;;6.92
15170;BMP280;7685;47.406;8.540;2024-03-06T09:20:22;96642.72;;;6.92
15170;BMP280;7685;47.406;8.540;2024-03-06T09:22:50;96643.63;;;6.94
15170;BMP280;7685;47.406;8.540;2024-03-06T09:25:20;96627.91;;;6.89
15170;BMP280;7685;47.406;8.540;2024-03-06T09:27:47;96640.59;;;6.90
15170;BMP280;7685;47.406;8.540;2024-03-06T09:30:14;96639.88;;;6.90
15170;BMP280;7685;47.406;8.540;2024-03-06T09:32:41;96642.72;;;6.92
15170;BMP280;7685;47.406;8.540;2024-03-06T09:35:11;96648.00;;;6.92
15170;BMP280;7685;47.406;8.540;2024-03-06T09:37:38;96642.72;;;6.92
15170;BMP280;7685;47.406;8.540;2024-03-06T09:40:05;96647.88;;;6.97
15170;BMP280;7685;47.406;8.540;2024-03-06T09:42:34;96651.22;;;6.98
15170;BMP280;7685;47.406;8.540;2024-03-06T09:45:00;96650.16;;;7.01
15170;BMP280;7685;47.406;8.540;2024-03-06T09:47:32;96652.97;;;7.03
15170;BMP280;7685;47.406;8.540;2024-03-06T09:49:59;96650.34;;;7.03
15170;BMP280;7685;47.406;8.540;2024-03-06T09:52:25;96651.56;;;7.02
15170;BMP280;7685;47.406;8.540;2024-03-06T09:54:54;96655.63;;;7.03
15170;BMP280;7685;47.406;8.540;2024-03-06T09:57:22;96652.97;;;7.03
15170;BMP280;7685;47.406;8.540;2024-03-06T09:59:49;96646.47;;;7.04
15170;BMP280;7685;47.406;8.540;2024-03-06T10:02:37;96651.44;;;7.08
15170;BMP280;7685;47.406;8.540;2024-03-06T10:05:05;96645.81;;;7.11
15170;BMP280;7685;47.406;8.540;2024-03-06T10:07:31;96645.63;;;7.09
15170;BMP280;7685;47.406;8.540;2024-03-06T10:09:58;96652.50;;;7.12
15170;BMP280;7685;47.406;8.540;2024-03-06T10:12:27;96652.84;;;7.16
15170;BMP280;7685;47.406;8.540;2024-03-06T10:14:55;96654.47;;;7.19
15170;BMP280;7685;47.406;8.540;2024-03-06T10:17:23;96652.94;;;7.24
15170;BMP280;7685;47.406;8.540;2024-03-06T10:19:50;96649.94;;;7.27
15170;BMP280;7685;47.406;8.540;2024-03-06T10:22:19;96655.78;;;7.34
15170;BMP280;7685;47.406;8.540;2024-03-06T10:24:47;96650.84;;;7.38
15170;BMP280;7685;47.406;8.540;2024-03-06T10:27:16;96655.78;;;7.41
15170;BMP280;7685;47.406;8.540;2024-03-06T10:29:44;96654.25;;;7.46
15170;BMP280;7685;47.406;8.540;2024-03-06T10:32:16;96651.22;;;7.49
15170;BMP280;7685;47.406;8.540;2024-03-06T10:34:45;96653.34;;;7.51
15170;BMP280;7685;47.406;8.540;2024-03-06T10:37:12;96649.66;;;7.54
15170;BMP280;7685;47.406;8.540;2024-03-06T10:39:42;96649.84;;;7.56
15170;BMP280;7685;47.406;8.540;2024-03-06T10:42:12;96648.81;;;7.59
15170;BMP280;7685;47.406;8.540;2024-03-06T10:44:48;96663.06;;;7.64
15170;BMP280;7685;47.406;8.540;2024-03-06T10:47:16;96656.03;;;7.66
15170;BMP280;7685;47.406;8.540;2024-03-06T10:49:45;96651.47;;;7.67
15170;BMP280;7685;47.406;8.540;2024-03-06T10:52:13;96649.91;;;7.71
15170;BMP280;7685;47.406;8.540;2024-03-06T10:54:43;96656.75;;;7.74
15170;BMP280;7685;47.406;8.540;2024-03-06T10:57:12;96654.50;;;7.78
15170;BMP280;7685;47.406;8.540;2024-03-06T10:59:40;96667.19;;;7.80
15170;BMP280;7685;47.406;8.540;2024-03-06T11:02:09;96670.72;;;7.83
15170;BMP280;7685;47.406;8.540;2024-03-06T11:04:36;96666.47;;;7.79
15170;BMP280;7685;47.406;8.540;2024-03-06T11:07:04;96667.53;;;7.76
15170;BMP280;7685;47.406;8.540;2024-03-06T11:09:34;96672.47;;;7.80
15170;BMP280;7685;47.406;8.540;2024-03-06T11:12:01;96672.47;;;7.80
15170;BMP280;7685;47.406;8.540;2024-03-06T11:14:30;96670.72;;;7.83
15170;BMP280;7685;47.406;8.540;2024-03-06T11:17:01;96677.38;;;7.84
15170;BMP280;7685;47.406;8.540;2024-03-06T11:19:29;96667.53;;;7.84
15170;BMP280;7685;47.406;8.540;2024-03-06T11:21:57;96667.19;;;7.88
15170;BMP280;7685;47.406;8.540;2024-03-06T11:24:31;96667.19;;;7.88
15170;BMP280;7685;47.406;8.540;2024-03-06T11:27:02;96669.31;;;7.89
15170;BMP280;7685;47.406;8.540;2024-03-06T11:30:02;96670.72;;;7.90
15170;BMP280;7685;47.406;8.540;2024-03-06T11:32:17;96673.34;;;7.90
15170;BMP280;7685;47.406;8.540;2024-03-06T11:34:44;96672.84;;;7.92
15170;BMP280;7685;47.406;8.540;2024-03-06T11:37:10;96656.97;;;7.92
15170;BMP280;7685;47.406;8.540;2024-03-06T11:39:38;96666.31;;;7.93
15170;BMP280;7685;47.406;8.540;2024-03-06T11:42:05;96667.19;;;7.88
15170;BMP280;7685;47.406;8.540;2024-03-06T11:44:36;96665.06;;;7.86
15170;BMP280;7685;47.406;8.540;2024-03-06T11:47:07;96670.34;;;7.86
15170;BMP280;7685;47.406;8.540;2024-03-06T11:49:36;96666.47;;;7.87
15170;BMP280;7685;47.406;8.540;2024-03-06T11:52:05;96664.91;;;7.92
15170;BMP280;7685;47.406;8.540;2024-03-06T11:54:32;96660.66;;;7.89
15170;BMP280;7685;47.406;8.540;2024-03-06T11:57:02;96665.97;;;7.89
15170;BMP280;7685;47.406;8.540;2024-03-06T11:59:31;96659.25;;;7.88
15170;BMP280;7685;47.406;8.540;2024-03-06T12:02:03;96656.09;;;7.89
15170;BMP280;7685;47.406;8.540;2024-03-06T12:04:35;96663.16;;;7.94
15170;BMP280;7685;47.406;8.540;2024-03-06T12:07:05;96665.44;;;7.90
15170;BMP280;7685;47.406;8.540;2024-03-06T12:09:34;96660.88;;;7.91
15170;BMP280;7685;47.406;8.540;2024-03-06T12:12:07;96656.63;;;7.88
15170;BMP280;7685;47.406;8.540;2024-03-06T12:14:35;96660.88;;;7.91
15170;BMP280;7685;47.406;8.540;2024-03-06T12:17:02;96656.44;;;7.93
15170;BMP280;7685;47.406;8.540;2024-03-06T12:19:31;96649.22;;;7.94
15170;BMP280;7685;47.406;8.540;2024-03-06T12:22:02;96645.31;;;7.95
15170;BMP280;7685;47.406;8.540;2024-03-06T12:24:31;96648.50;;;7.93
15170;BMP280;7685;47.406;8.540;2024-03-06T12:27:02;96648.69;;;7.95
15170;BMP280;7685;47.406;8.540;2024-03-06T12:29:30;96652.03;;;7.96
15170;BMP280;7685;47.406;8.540;2024-03-06T12:31:59;96652.22;;;7.98
15170;BMP280;7685;47.406;8.540;2024-03-06T12:34:26;96648.88;;;7.97
15170;BMP280;7685;47.406;8.540;2024-03-06T12:36:52;96645.88;;;8.01
15170;BMP280;7685;47.406;8.540;2024-03-06T12:39:19;96637.56;;;7.97
15170;BMP280;7685;47.406;8.540;2024-03-06T12:41:50;96635.81;;;7.99
15170;BMP280;7685;47.406;8.540;2024-03-06T12:44:18;96640.41;;;7.99
15170;BMP280;7685;47.406;8.540;2024-03-06T12:46:45;96626.81;;;7.95
15170;BMP280;7685;47.406;8.540;2024-03-06T12:49:11;96633.34;;;7.94
15170;BMP280;7685;47.406;8.540;2024-03-06T12:51:38;96634.03;;;7.94
15170;BMP280;7685;47.406;8.540;2024-03-06T12:54:04;96636.69;;;7.94
15170;BMP280;7685;47.406;8.540;2024-03-06T12:56:30;96634.91;;;7.97
15170;BMP280;7685;47.406;8.540;2024-03-06T12:58:57;96634.91;;;7.97
15170;BMP280;7685;47.406;8.540;2024-03-06T13:01:25;96640.19;;;7.97
15170;BMP280;7685;47.406;8.540;2024-03-06T13:03:51;96632.81;;;7.95
15170;BMP280;7685;47.406;8.540;2024-03-06T13:06:18;96632.28;;;7.89
15170;BMP280;7685;47.406;8.540;2024-03-06T13:08:45;96634.59;;;7.93
15170;BMP280;7685;47.406;8.540;2024-03-06T13:11:11;96634.91;;;7.89
15170;BMP280;7685;47.406;8.540;2024-03-06T13:13:38;96626.47;;;7.91
15170;BMP280;7685;47.406;8.540;2024-03-06T13:16:04;96634.41;;;7.91
15170;BMP280;7685;47.406;8.540;2024-03-06T13:18:34;96641.81;;;7.92
15170;BMP280;7685;47.406;8.540;2024-03-06T13:21:00;96632.09;;;7.87
15170;BMP280;7685;47.406;8.540;2024-03-06T13:23:28;96628.03;;;7.86
15170;BMP280;7685;47.406;8.540;2024-03-06T13:25:54;96631.38;;;7.87
15170;BMP280;7685;47.406;8.540;2024-03-06T13:28:21;96632.63;;;7.86
15170;BMP280;7685;47.406;8.540;2024-03-06T13:30:47;96640.38;;;7.84
15170;BMP280;7685;47.406;8.540;2024-03-06T13:33:14;96635.44;;;7.80
15170;BMP280;7685;47.406;8.540;2024-03-06T13:35:41;96641.28;;;7.78
15170;BMP280;7685;47.406;8.540;2024-03-06T13:38:08;96646.00;;;7.72
15170;BMP280;7685;47.406;8.540;2024-03-06T13:40:35;96647.94;;;7.72
15170;BMP280;7685;47.406;8.540;2024-03-06T13:43:02;96649.91;;;7.71
15170;BMP280;7685;47.406;8.540;2024-03-06T13:45:28;96634.34;;;7.68
15170;BMP280;7685;47.406;8.540;2024-03-06T13:47:55;96649.91;;;7.71
15170;BMP280;7685;47.406;8.540;2024-03-06T13:50:22;96643.53;;;7.74
15170;BMP280;7685;47.406;8.540;2024-03-06T13:52:52;96640.19;;;7.74
15170;BMP280;7685;47.406;8.540;2024-03-06T13:55:18;96647.41;;;7.73
15170;BMP280;7685;47.406;8.540;2024-03-06T13:57:45;96643.00;;;7.76
15170;BMP280;7685;47.406;8.540;2024-03-06T14:00:14;96645.84;;;7.78
15170;BMP280;7685;47.406;8.540;2024-03-06T14:02:44;96648.50;;;7.78
15170;BMP280;7685;47.406;8.540;2024-03-06T14:05:14;96651.13;;;7.78
15170;BMP280;7685;47.406;8.540;2024-03-06T14:07:42;96652.34;;;7.77
15170;BMP280;7685;47.406;8.540;2024-03-06T14:10:08;96652.88;;;7.75
15170;BMP280;7685;47.406;8.540;2024-03-06T14:12:38;96660.28;;;7.77
15170;BMP280;7685;47.406;8.540;2024-03-06T14:15:05;96662.94;;;7.77
15170;BMP280;7685;47.406;8.540;2024-03-06T14:17:35;96660.63;;;7.73
15170;BMP280;7685;47.406;8.540;2024-03-06T14:20:01;96661.88;;;7.72
15170;BMP280;7685;47.406;8.540;2024-03-06T14:22:28;96656.25;;;7.68
15170;BMP280;7685;47.406;8.540;2024-03-06T14:24:55;96637.16;;;7.62
15170;BMP280;7685;47.406;8.540;2024-03-06T14:27:24;96651.13;;;7.70
15170;BMP280;7685;47.406;8.540;2024-03-06T14:29:52;96656.41;;;7.70
15170;BMP280;7685;47.406;8.540;2024-03-06T14:32:20;96661.00;;;7.70
15170;BMP280;7685;47.406;8.540;2024-03-06T14:34:47;96664.88;;;7.69
15170;BMP280;7685;47.406;8.540;2024-03-06T14:37:13;96663.97;;;7.66
15170;BMP280;7685;47.406;8.540;2024-03-06T14:39:40;96663.63;;;7.70
15170;BMP280;7685;47.406;8.540;2024-03-06T14:42:06;96664.16;;;7.68